sensor_id;sensor_type;location;lat;lon;timestamp;pressure;altitude;pressure_sealevel;temperature
68127;BMP180;54931;52.098;21.006;2022-09-11T00:01:15;99719.60;;;12.78
68127;BMP180;54931;52.098;21.006;2022-09-11T00:03:44;99718.20;;;12.80
68127;BMP180;54931;52.098;21.006;2022-09-11T00:06:18;99713.80;;;12.76
68127;BMP180;54931;52.098;21.006;2022-09-11T00:08:46;99715.00;;;12.70
68127;BMP180;54931;52.098;21.006;2022-09-11T00:11:17;99717.60;;;12.70
68127;BMP180;54931;52.098;21.006;2022-09-11T00:13:49;99712.00;;;12.70
68127;BMP180;54931;52.098;21.006;2022-09-11T00:16:25;99706.80;;;12.68
68127;BMP180;54931;52.098;21.006;2022-09-11T00:18:56;99708.00;;;12.60
68127;BMP180;54931;52.098;21.006;2022-09-11T00:21:24;99704.40;;;12.60
68127;BMP180;54931;52.098;21.006;2022-09-11T00:23:51;99707.80;;;12.60
68127;BMP180;54931;52.098;21.006;2022-09-11T00:26:19;99703.60;;;12.60
68127;BMP180;54931;52.098;21.006;2022-09-11T00:28:47;99709.60;;;12.60
68127;BMP180;54931;52.098;21.006;2022-09-11T00:31:25;99703.20;;;12.60
68127;BMP180;54931;52.098;21.006;2022-09-11T00:33:53;99704.20;;;12.58
68127;BMP180;54931;52.098;21.006;2022-09-11T00:36:23;99702.00;;;12.50
68127;BMP180;54931;52.098;21.006;2022-09-11T00:38:52;99699.00;;;12.50
68127;BMP180;54931;52.098;21.006;2022-09-11T00:41:22;99697.60;;;12.40
68127;BMP180;54931;52.098;21.006;2022-09-11T00:46:55;99685.40;;;12.40
68127;BMP180;54931;52.098;21.006;2022-09-11T00:52:02;99682.20;;;12.30
68127;BMP180;54931;52.098;21.006;2022-09-11T00:54:34;99681.40;;;12.30
68127;BMP180;54931;52.098;21.006;2022-09-11T00:57:05;99677.20;;;12.30
68127;BMP180;54931;52.098;21.006;2022-09-11T00:59:34;99674.60;;;12.26
68127;BMP180;54931;52.098;21.006;2022-09-11T01:02:01;99673.80;;;12.20
68127;BMP180;54931;52.098;21.006;2022-09-11T01:04:28;99672.00;;;12.20
68127;BMP180;54931;52.098;21.006;2022-09-11T01:06:56;99669.80;;;12.20
68127;BMP180;54931;52.098;21.006;2022-09-11T01:09:28;99676.60;;;12.20
68127;BMP180;54931;52.098;21.006;2022-09-11T01:12:10;99673.20;;;12.20
68127;BMP180;54931;52.098;21.006;2022-09-11T01:28:53;99663.20;;;12.18
68127;BMP180;54931;52.098;21.006;2022-09-11T01:31:25;99661.40;;;12.20
68127;BMP180;54931;52.098;21.006;2022-09-11T01:34:13;99663.40;;;12.20
68127;BMP180;54931;52.098;21.006;2022-09-11T01:36:53;99659.60;;;12.20
68127;BMP180;54931;52.098;21.006;2022-09-11T01:39:25;99657.80;;;12.20
68127;BMP180;54931;52.098;21.006;2022-09-11T01:41:59;99657.00;;;12.20
68127;BMP180;54931;52.098;21.006;2022-09-11T01:44:49;99654.20;;;12.20
68127;BMP180;54931;52.098;21.006;2022-09-11T01:47:19;99649.40;;;12.20
68127;BMP180;54931;52.098;21.006;2022-09-11T01:50:08;99646.40;;;12.10
68127;BMP180;54931;52.098;21.006;2022-09-11T01:52:46;99649.20;;;12.10
68127;BMP180;54931;52.098;21.006;2022-09-11T01:55:22;99646.20;;;12.10
68127;BMP180;54931;52.098;21.006;2022-09-11T01:57:57;99644.00;;;12.10
68127;BMP180;54931;52.098;21.006;2022-09-11T02:00:25;99640.60;;;12.10
68127;BMP180;54931;52.098;21.006;2022-09-11T02:02:56;99642.60;;;12.10
68127;BMP180;54931;52.098;21.006;2022-09-11T02:05:29;99639.60;;;12.10
68127;BMP180;54931;52.098;21.006;2022-09-11T02:08:03;99643.40;;;12.20
68127;BMP180;54931;52.098;21.006;2022-09-11T02:10:39;99646.20;;;12.20
68127;BMP180;54931;52.098;21.006;2022-09-11T02:13:14;99646.20;;;12.20
68127;BMP180;54931;52.098;21.006;2022-09-11T02:15:53;99646.60;;;12.20
68127;BMP180;54931;52.098;21.006;2022-09-11T02:18:25;99647.60;;;12.20
68127;BMP180;54931;52.098;21.006;2022-09-11T02:20:54;99642.80;;;12.20
68127;BMP180;54931;52.098;21.006;2022-09-11T02:23:21;99637.40;;;12.18
68127;BMP180;54931;52.098;21.006;2022-09-11T02:25:48;99644.80;;;12.20
68127;BMP180;54931;52.098;21.006;2022-09-11T02:28:16;99642.20;;;12.18
68127;BMP180;54931;52.098;21.006;2022-09-11T02:30:43;99642.60;;;12.20
68127;BMP180;54931;52.098;21.006;2022-09-11T02:33:31;99640.40;;;12.20
68127;BMP180;54931;52.098;21.006;2022-09-11T02:36:17;99636.40;;;12.20
68127;BMP180;54931;52.098;21.006;2022-09-11T02:41:31;99638.00;;;12.20
68127;BMP180;54931;52.098;21.006;2022-09-11T02:44:44;99635.60;;;12.20
68127;BMP180;54931;52.098;21.006;2022-09-11T02:50:39;99636.20;;;12.26
68127;BMP180;54931;52.098;21.006;2022-09-11T02:56:10;99634.60;;;12.20
68127;BMP180;54931;52.098;21.006;2022-09-11T02:58:47;99630.40;;;12.20
68127;BMP180;54931;52.098;21.006;2022-09-11T03:01:16;99629.20;;;12.20
68127;BMP180;54931;52.098;21.006;2022-09-11T03:03:44;99629.80;;;12.20
68127;BMP180;54931;52.098;21.006;2022-09-11T03:06:23;99630.40;;;12.20
68127;BMP180;54931;52.098;21.006;2022-09-11T03:08:50;99627.80;;;12.20
68127;BMP180;54931;52.098;21.006;2022-09-11T03:11:17;99626.00;;;12.20
68127;BMP180;54931;52.098;21.006;2022-09-11T03:13:45;99619.60;;;12.20
68127;BMP180;54931;52.098;21.006;2022-09-11T03:16:13;99621.40;;;12.20
68127;BMP180;54931;52.098;21.006;2022-09-11T03:18:40;99618.20;;;12.20
68127;BMP180;54931;52.098;21.006;2022-09-11T03:21:07;99618.80;;;12.10
68127;BMP180;54931;52.098;21.006;2022-09-11T03:23:36;99616.00;;;12.00
68127;BMP180;54931;52.098;21.006;2022-09-11T03:26:04;99619.00;;;12.00
68127;BMP180;54931;52.098;21.006;2022-09-11T03:28:31;99620.20;;;12.00
68127;BMP180;54931;52.098;21.006;2022-09-11T03:30:58;99618.20;;;12.00
68127;BMP180;54931;52.098;21.006;2022-09-11T03:33:25;99619.40;;;11.98
68127;BMP180;54931;52.098;21.006;2022-09-11T03:35:53;99615.00;;;12.00
68127;BMP180;54931;52.098;21.006;2022-09-11T03:38:20;99613.00;;;11.94
68127;BMP180;54931;52.098;21.006;2022-09-11T03:40:47;99614.80;;;11.90
68127;BMP180;54931;52.098;21.006;2022-09-11T03:43:14;99614.40;;;11.90
68127;BMP180;54931;52.098;21.006;2022-09-11T03:45:42;99613.60;;;11.90
68127;BMP180;54931;52.098;21.006;2022-09-11T03:48:10;99610.20;;;11.90
68127;BMP180;54931;52.098;21.006;2022-09-11T03:50:37;99610.40;;;11.90
68127;BMP180;54931;52.098;21.006;2022-09-11T03:53:04;99616.20;;;11.90
68127;BMP180;54931;52.098;21.006;2022-09-11T03:55:31;99610.60;;;11.90
68127;BMP180;54931;52.098;21.006;2022-09-11T03:57:58;99617.00;;;11.90
68127;BMP180;54931;52.098;21.006;2022-09-11T04:00:26;99615.00;;;11.90
68127;BMP180;54931;52.098;21.006;2022-09-11T04:02:53;99612.00;;;11.90
68127;BMP180;54931;52.098;21.006;2022-09-11T04:05:24;99612.60;;;11.90
68127;BMP180;54931;52.098;21.006;2022-09-11T04:07:52;99609.20;;;11.90
68127;BMP180;54931;52.098;21.006;2022-09-11T04:10:20;99612.40;;;11.90
68127;BMP180;54931;52.098;21.006;2022-09-11T04:12:47;99616.40;;;11.90
68127;BMP180;54931;52.098;21.006;2022-09-11T04:15:15;99613.60;;;11.92
68127;BMP180;54931;52.098;21.006;2022-09-11T04:17:42;99614.40;;;12.00
68127;BMP180;54931;52.098;21.006;2022-09-11T04:20:09;99615.60;;;12.00
68127;BMP180;54931;52.098;21.006;2022-09-11T04:22:36;99614.20;;;12.00
68127;BMP180;54931;52.098;21.006;2022-09-11T04:25:05;99617.00;;;12.00
68127;BMP180;54931;52.098;21.006;2022-09-11T04:27:33;99616.80;;;12.00
68127;BMP180;54931;52.098;21.006;2022-09-11T04:30:00;99610.20;;;12.00
68127;BMP180;54931;52.098;21.006;2022-09-11T04:32:27;99612.40;;;12.00
68127;BMP180;54931;52.098;21.006;2022-09-11T04:34:54;99614.80;;;12.00
68127;BMP180;54931;52.098;21.006;2022-09-11T04:37:21;99614.20;;;12.00
68127;BMP180;54931;52.098;21.006;2022-09-11T04:39:48;99614.80;;;12.00
68127;BMP180;54931;52.098;21.006;2022-09-11T04:42:16;99612.60;;;12.00
68127;BMP180;54931;52.098;21.006;2022-09-11T04:44:43;99609.20;;;12.00
68127;BMP180;54931;52.098;21.006;2022-09-11T04:47:10;99606.40;;;12.00
68127;BMP180;54931;52.098;21.006;2022-09-11T04:49:37;99607.00;;;12.00
68127;BMP180;54931;52.098;21.006;2022-09-11T04:52:04;99605.60;;;11.90
68127;BMP180;54931;52.098;21.006;2022-09-11T04:54:32;99605.80;;;11.90
68127;BMP180;54931;52.098;21.006;2022-09-11T04:57:00;99603.00;;;11.90
68127;BMP180;54931;52.098;21.006;2022-09-11T04:59:30;99602.60;;;11.90
68127;BMP180;54931;52.098;21.006;2022-09-11T05:01:57;99602.80;;;11.92
68127;BMP180;54931;52.098;21.006;2022-09-11T05:04:24;99604.80;;;12.00
68127;BMP180;54931;52.098;21.006;2022-09-11T05:06:51;99600.80;;;12.00
68127;BMP180;54931;52.098;21.006;2022-09-11T05:09:18;99601.20;;;12.00
68127;BMP180;54931;52.098;21.006;2022-09-11T05:11:45;99599.40;;;12.00
68127;BMP180;54931;52.098;21.006;2022-09-11T05:14:12;99600.80;;;12.00
68127;BMP180;54931;52.098;21.006;2022-09-11T05:16:39;99597.20;;;12.00
68127;BMP180;54931;52.098;21.006;2022-09-11T05:19:06;99590.40;;;12.00
68127;BMP180;54931;52.098;21.006;2022-09-11T05:21:34;99593.40;;;12.00
68127;BMP180;54931;52.098;21.006;2022-09-11T05:24:02;99587.00;;;12.00
68127;BMP180;54931;52.098;21.006;2022-09-11T05:26:32;99588.80;;;12.00
68127;BMP180;54931;52.098;21.006;2022-09-11T05:29:05;99589.20;;;12.00
68127;BMP180;54931;52.098;21.006;2022-09-11T05:31:33;99585.00;;;12.00
68127;BMP180;54931;52.098;21.006;2022-09-11T05:34:00;99592.40;;;12.00
68127;BMP180;54931;52.098;21.006;2022-09-11T05:36:29;99591.60;;;12.00
68127;BMP180;54931;52.098;21.006;2022-09-11T05:39:03;99590.40;;;12.00
68127;BMP180;54931;52.098;21.006;2022-09-11T05:41:30;99592.20;;;12.00
68127;BMP180;54931;52.098;21.006;2022-09-11T05:43:57;99588.60;;;11.92
68127;BMP180;54931;52.098;21.006;2022-09-11T05:46:24;99589.60;;;11.92
68127;BMP180;54931;52.098;21.006;2022-09-11T05:48:52;99590.00;;;11.92
68127;BMP180;54931;52.098;21.006;2022-09-11T05:51:20;99585.20;;;11.98
68127;BMP180;54931;52.098;21.006;2022-09-11T05:53:52;99589.20;;;11.92
68127;BMP180;54931;52.098;21.006;2022-09-11T05:56:21;99590.20;;;12.00
68127;BMP180;54931;52.098;21.006;2022-09-11T05:58:49;99589.60;;;12.00
68127;BMP180;54931;52.098;21.006;2022-09-11T06:01:22;99591.40;;;12.00
68127;BMP180;54931;52.098;21.006;2022-09-11T06:03:49;99592.40;;;11.98
68127;BMP180;54931;52.098;21.006;2022-09-11T06:06:20;99592.00;;;11.92
68127;BMP180;54931;52.098;21.006;2022-09-11T06:08:49;99588.20;;;11.90
68127;BMP180;54931;52.098;21.006;2022-09-11T06:11:19;99590.60;;;11.90
68127;BMP180;54931;52.098;21.006;2022-09-11T06:13:47;99594.80;;;11.90
68127;BMP180;54931;52.098;21.006;2022-09-11T06:16:19;99593.80;;;11.90
68127;BMP180;54931;52.098;21.006;2022-09-11T06:18:49;99599.40;;;11.90
68127;BMP180;54931;52.098;21.006;2022-09-11T06:21:18;99600.40;;;11.90
68127;BMP180;54931;52.098;21.006;2022-09-11T06:23:47;99598.60;;;11.98
68127;BMP180;54931;52.098;21.006;2022-09-11T06:26:17;99599.40;;;12.00
68127;BMP180;54931;52.098;21.006;2022-09-11T06:28:44;99601.20;;;12.00
68127;BMP180;54931;52.098;21.006;2022-09-11T06:31:15;99598.00;;;12.10
68127;BMP180;54931;52.098;21.006;2022-09-11T06:33:43;99599.00;;;12.10
68127;BMP180;54931;52.098;21.006;2022-09-11T06:36:19;99598.60;;;12.08
68127;BMP180;54931;52.098;21.006;2022-09-11T06:38:51;99595.80;;;12.00
68127;BMP180;54931;52.098;21.006;2022-09-11T06:41:19;99592.20;;;12.02
68127;BMP180;54931;52.098;21.006;2022-09-11T06:43:46;99592.40;;;12.02
68127;BMP180;54931;52.098;21.006;2022-09-11T06:46:22;99594.60;;;12.08
68127;BMP180;54931;52.098;21.006;2022-09-11T06:48:51;99597.60;;;12.10
68127;BMP180;54931;52.098;21.006;2022-09-11T06:51:20;99598.80;;;12.10
68127;BMP180;54931;52.098;21.006;2022-09-11T06:53:52;99595.60;;;12.18
68127;BMP180;54931;52.098;21.006;2022-09-11T06:56:19;99599.60;;;12.14
68127;BMP180;54931;52.098;21.006;2022-09-11T06:58:48;99601.20;;;12.18
68127;BMP180;54931;52.098;21.006;2022-09-11T07:01:18;99599.00;;;12.20
68127;BMP180;54931;52.098;21.006;2022-09-11T07:03:50;99598.80;;;12.18
68127;BMP180;54931;52.098;21.006;2022-09-11T07:06:28;99600.20;;;12.20
68127;BMP180;54931;52.098;21.006;2022-09-11T07:08:58;99602.00;;;12.20
68127;BMP180;54931;52.098;21.006;2022-09-11T07:11:29;99596.20;;;12.10
68127;BMP180;54931;52.098;21.006;2022-09-11T07:14:00;99597.20;;;12.10
68127;BMP180;54931;52.098;21.006;2022-09-11T07:16:32;99601.80;;;12.10
68127;BMP180;54931;52.098;21.006;2022-09-11T07:18:59;99594.20;;;12.10
68127;BMP180;54931;52.098;21.006;2022-09-11T07:21:26;99592.60;;;12.10
68127;BMP180;54931;52.098;21.006;2022-09-11T07:23:56;99592.80;;;12.10
68127;BMP180;54931;52.098;21.006;2022-09-11T07:26:26;99591.00;;;12.10
68127;BMP180;54931;52.098;21.006;2022-09-11T07:28:53;99593.60;;;12.12
68127;BMP180;54931;52.098;21.006;2022-09-11T07:31:27;99595.80;;;12.10
68127;BMP180;54931;52.098;21.006;2022-09-11T07:33:58;99596.20;;;12.10
68127;BMP180;54931;52.098;21.006;2022-09-11T07:36:27;99596.00;;;12.10
68127;BMP180;54931;52.098;21.006;2022-09-11T07:38:56;99595.20;;;12.20
68127;BMP180;54931;52.098;21.006;2022-09-11T07:41:25;99593.00;;;12.18
68127;BMP180;54931;52.098;21.006;2022-09-11T07:43:55;99596.00;;;12.20
68127;BMP180;54931;52.098;21.006;2022-09-11T07:46:23;99595.20;;;12.20
68127;BMP180;54931;52.098;21.006;2022-09-11T07:48:50;99594.80;;;12.20
68127;BMP180;54931;52.098;21.006;2022-09-11T07:51:18;99593.20;;;12.12
68127;BMP180;54931;52.098;21.006;2022-09-11T07:53:48;99591.20;;;12.10
68127;BMP180;54931;52.098;21.006;2022-09-11T07:56:23;99592.00;;;12.10
68127;BMP180;54931;52.098;21.006;2022-09-11T07:58:53;99595.00;;;12.08
68127;BMP180;54931;52.098;21.006;2022-09-11T08:01:25;99595.60;;;12.02
68127;BMP180;54931;52.098;21.006;2022-09-11T08:04:00;99599.80;;;12.02
68127;BMP180;54931;52.098;21.006;2022-09-11T08:06:30;99597.40;;;12.00
68127;BMP180;54931;52.098;21.006;2022-09-11T08:08:59;99598.00;;;12.00
68127;BMP180;54931;52.098;21.006;2022-09-11T08:11:28;99595.80;;;12.00
68127;BMP180;54931;52.098;21.006;2022-09-11T08:13:57;99591.00;;;12.02
68127;BMP180;54931;52.098;21.006;2022-09-11T08:16:25;99590.60;;;12.10
68127;BMP180;54931;52.098;21.006;2022-09-11T08:18:53;99593.60;;;12.10
68127;BMP180;54931;52.098;21.006;2022-09-11T08:21:21;99594.40;;;12.20
68127;BMP180;54931;52.098;21.006;2022-09-11T08:23:49;99595.40;;;12.20
68127;BMP180;54931;52.098;21.006;2022-09-11T08:26:19;99593.60;;;12.10
68127;BMP180;54931;52.098;21.006;2022-09-11T08:28:49;99593.80;;;12.10
68127;BMP180;54931;52.098;21.006;2022-09-11T08:31:20;99596.20;;;12.10
68127;BMP180;54931;52.098;21.006;2022-09-11T08:33:47;99600.00;;;12.20
68127;BMP180;54931;52.098;21.006;2022-09-11T08:36:18;99601.20;;;12.20
68127;BMP180;54931;52.098;21.006;2022-09-11T08:38:46;99604.40;;;12.20
68127;BMP180;54931;52.098;21.006;2022-09-11T08:43:52;99602.60;;;12.10
68127;BMP180;54931;52.098;21.006;2022-09-11T08:46:22;99604.80;;;12.06
68127;BMP180;54931;52.098;21.006;2022-09-11T08:49:17;99608.80;;;12.00
68127;BMP180;54931;52.098;21.006;2022-09-11T08:51:45;99606.00;;;12.00
68127;BMP180;54931;52.098;21.006;2022-09-11T08:54:22;99606.20;;;12.00
68127;BMP180;54931;52.098;21.006;2022-09-11T09:17:54;99607.00;;;12.00
68127;BMP180;54931;52.098;21.006;2022-09-11T09:20:33;99608.20;;;11.94
68127;BMP180;54931;52.098;21.006;2022-09-11T09:23:05;99608.80;;;11.90
68127;BMP180;54931;52.098;21.006;2022-09-11T09:25:39;99612.20;;;11.88
68127;BMP180;54931;52.098;21.006;2022-09-11T09:28:18;99607.60;;;11.80
68127;BMP180;54931;52.098;21.006;2022-09-11T09:30:56;99604.40;;;11.78
68127;BMP180;54931;52.098;21.006;2022-09-11T09:33:36;99606.20;;;11.78
68127;BMP180;54931;52.098;21.006;2022-09-11T09:38:39;99607.20;;;11.70
68127;BMP180;54931;52.098;21.006;2022-09-11T09:46:51;99629.60;;;11.70
68127;BMP180;54931;52.098;21.006;2022-09-11T09:49:24;99629.20;;;11.60
68127;BMP180;54931;52.098;21.006;2022-09-11T09:51:57;99633.40;;;11.50
68127;BMP180;54931;52.098;21.006;2022-09-11T09:54:27;99634.60;;;11.40
68127;BMP180;54931;52.098;21.006;2022-09-11T09:57:00;99634.20;;;11.30
68127;BMP180;54931;52.098;21.006;2022-09-11T09:59:42;99637.00;;;11.30
68127;BMP180;54931;52.098;21.006;2022-09-11T10:02:11;99630.20;;;11.30
68127;BMP180;54931;52.098;21.006;2022-09-11T10:04:39;99631.80;;;11.28
68127;BMP180;54931;52.098;21.006;2022-09-11T10:07:12;99633.00;;;11.20
68127;BMP180;54931;52.098;21.006;2022-09-11T10:09:47;99634.60;;;11.20
68127;BMP180;54931;52.098;21.006;2022-09-11T10:12:23;99639.60;;;11.20
68127;BMP180;54931;52.098;21.006;2022-09-11T10:14:55;99635.20;;;11.20
68127;BMP180;54931;52.098;21.006;2022-09-11T10:22:48;99639.00;;;11.40
68127;BMP180;54931;52.098;21.006;2022-09-11T10:25:19;99637.40;;;11.40
68127;BMP180;54931;52.098;21.006;2022-09-11T10:28:10;99641.00;;;11.40
68127;BMP180;54931;52.098;21.006;2022-09-11T10:30:42;99642.40;;;11.48
68127;BMP180;54931;52.098;21.006;2022-09-11T10:33:34;99645.20;;;11.60
68127;BMP180;54931;52.098;21.006;2022-09-11T10:36:06;99646.60;;;11.70
68127;BMP180;54931;52.098;21.006;2022-09-11T10:38:45;99647.20;;;11.80
68127;BMP180;54931;52.098;21.006;2022-09-11T10:43:56;99642.80;;;11.90
68127;BMP180;54931;52.098;21.006;2022-09-11T10:49:20;99630.60;;;11.80
68127;BMP180;54931;52.098;21.006;2022-09-11T10:52:18;99627.00;;;11.90
68127;BMP180;54931;52.098;21.006;2022-09-11T11:00:22;99612.40;;;11.80
68127;BMP180;54931;52.098;21.006;2022-09-11T11:03:03;99606.00;;;11.80
68127;BMP180;54931;52.098;21.006;2022-09-11T11:11:21;99598.40;;;12.18
68127;BMP180;54931;52.098;21.006;2022-09-11T11:34:11;99597.20;;;13.40
68127;BMP180;54931;52.098;21.006;2022-09-11T11:36:45;99596.80;;;13.40
68127;BMP180;54931;52.098;21.006;2022-09-11T11:39:46;99600.80;;;13.42
68127;BMP180;54931;52.098;21.006;2022-09-11T11:42:28;99599.40;;;13.48
68127;BMP180;54931;52.098;21.006;2022-09-11T11:45:02;99598.80;;;13.40
68127;BMP180;54931;52.098;21.006;2022-09-11T11:47:37;99605.60;;;13.50
68127;BMP180;54931;52.098;21.006;2022-09-11T12:01:53;99593.00;;;13.80
68127;BMP180;54931;52.098;21.006;2022-09-11T12:06:57;99593.40;;;14.00
68127;BMP180;54931;52.098;21.006;2022-09-11T12:09:25;99598.00;;;14.00
68127;BMP180;54931;52.098;21.006;2022-09-11T12:11:54;99598.20;;;14.10
68127;BMP180;54931;52.098;21.006;2022-09-11T12:14:27;99594.60;;;14.20
68127;BMP180;54931;52.098;21.006;2022-09-11T12:16:55;99597.60;;;14.20
68127;BMP180;54931;52.098;21.006;2022-09-11T12:19:23;99596.00;;;14.30
68127;BMP180;54931;52.098;21.006;2022-09-11T12:24:50;99593.40;;;14.50
68127;BMP180;54931;52.098;21.006;2022-09-11T12:32:54;99596.00;;;14.70
68127;BMP180;54931;52.098;21.006;2022-09-11T12:35:40;99593.40;;;14.70
68127;BMP180;54931;52.098;21.006;2022-09-11T12:38:22;99594.60;;;14.80
68127;BMP180;54931;52.098;21.006;2022-09-11T12:40:56;99593.00;;;14.76
68127;BMP180;54931;52.098;21.006;2022-09-11T12:43:44;99587.20;;;14.70
68127;BMP180;54931;52.098;21.006;2022-09-11T12:49:08;99596.60;;;14.90
68127;BMP180;54931;52.098;21.006;2022-09-11T12:51:38;99587.80;;;15.00
68127;BMP180;54931;52.098;21.006;2022-09-11T12:54:20;99590.20;;;15.04
68127;BMP180;54931;52.098;21.006;2022-09-11T12:57:10;99591.40;;;15.10
68127;BMP180;54931;52.098;21.006;2022-09-11T12:59:44;99585.40;;;15.04
68127;BMP180;54931;52.098;21.006;2022-09-11T13:04:59;99585.80;;;15.18
68127;BMP180;54931;52.098;21.006;2022-09-11T13:10:07;99584.60;;;15.42
68127;BMP180;54931;52.098;21.006;2022-09-11T13:12:49;99585.40;;;15.60
68127;BMP180;54931;52.098;21.006;2022-09-11T13:15:49;99588.40;;;15.70
68127;BMP180;54931;52.098;21.006;2022-09-11T13:18:26;99583.60;;;15.70
68127;BMP180;54931;52.098;21.006;2022-09-11T13:21:12;99580.40;;;15.80
68127;BMP180;54931;52.098;21.006;2022-09-11T13:23:40;99577.80;;;15.90
68127;BMP180;54931;52.098;21.006;2022-09-11T13:26:34;99577.00;;;16.00
68127;BMP180;54931;52.098;21.006;2022-09-11T13:29:00;99575.60;;;16.00
68127;BMP180;54931;52.098;21.006;2022-09-11T13:31:33;99582.20;;;16.06
68127;BMP180;54931;52.098;21.006;2022-09-11T13:34:04;99576.60;;;16.20
68127;BMP180;54931;52.098;21.006;2022-09-11T13:36:33;99578.20;;;16.20
68127;BMP180;54931;52.098;21.006;2022-09-11T13:39:02;99575.00;;;16.20
68127;BMP180;54931;52.098;21.006;2022-09-11T13:41:34;99579.40;;;16.20
68127;BMP180;54931;52.098;21.006;2022-09-11T13:44:10;99582.20;;;16.20
68127;BMP180;54931;52.098;21.006;2022-09-11T13:46:48;99578.80;;;16.10
68127;BMP180;54931;52.098;21.006;2022-09-11T13:51:45;99582.40;;;16.10
68127;BMP180;54931;52.098;21.006;2022-09-11T13:55:14;99575.40;;;16.00
68127;BMP180;54931;52.098;21.006;2022-09-11T13:57:17;99579.00;;;16.00
68127;BMP180;54931;52.098;21.006;2022-09-11T13:59:46;99582.20;;;16.00
68127;BMP180;54931;52.098;21.006;2022-09-11T14:05:21;99583.80;;;16.00
68127;BMP180;54931;52.098;21.006;2022-09-11T14:07:56;99586.20;;;16.02
68127;BMP180;54931;52.098;21.006;2022-09-11T14:10:27;99586.00;;;16.10
68127;BMP180;54931;52.098;21.006;2022-09-11T14:13:03;99584.80;;;16.12
68127;BMP180;54931;52.098;21.006;2022-09-11T14:15:37;99584.40;;;16.20
68127;BMP180;54931;52.098;21.006;2022-09-11T14:18:22;99591.80;;;16.38
68127;BMP180;54931;52.098;21.006;2022-09-11T14:20:50;99590.80;;;16.50
68127;BMP180;54931;52.098;21.006;2022-09-11T14:23:24;99594.20;;;16.56
68127;BMP180;54931;52.098;21.006;2022-09-11T14:26:09;99595.60;;;16.60
68127;BMP180;54931;52.098;21.006;2022-09-11T14:31:08;99597.20;;;16.50
68127;BMP180;54931;52.098;21.006;2022-09-11T14:33:37;99592.60;;;16.40
68127;BMP180;54931;52.098;21.006;2022-09-11T14:36:09;99596.40;;;16.40
68127;BMP180;54931;52.098;21.006;2022-09-11T14:38:40;99595.60;;;16.40
68127;BMP180;54931;52.098;21.006;2022-09-11T14:41:07;99599.40;;;16.36
68127;BMP180;54931;52.098;21.006;2022-09-11T14:43:36;99600.80;;;16.30
68127;BMP180;54931;52.098;21.006;2022-09-11T14:46:04;99600.80;;;16.30
68127;BMP180;54931;52.098;21.006;2022-09-11T14:48:33;99598.40;;;16.30
68127;BMP180;54931;52.098;21.006;2022-09-11T14:51:02;99601.20;;;16.20
68127;BMP180;54931;52.098;21.006;2022-09-11T14:53:33;99602.00;;;16.14
68127;BMP180;54931;52.098;21.006;2022-09-11T14:56:01;99602.20;;;16.10
68127;BMP180;54931;52.098;21.006;2022-09-11T14:58:29;99602.60;;;16.08
68127;BMP180;54931;52.098;21.006;2022-09-11T15:00:57;99601.00;;;16.00
68127;BMP180;54931;52.098;21.006;2022-09-11T15:03:24;99599.80;;;16.00
68127;BMP180;54931;52.098;21.006;2022-09-11T15:05:56;99606.20;;;15.98
68127;BMP180;54931;52.098;21.006;2022-09-11T15:08:24;99605.40;;;16.00
68127;BMP180;54931;52.098;21.006;2022-09-11T15:10:52;99603.20;;;16.00
68127;BMP180;54931;52.098;21.006;2022-09-11T15:13:20;99605.80;;;16.08
68127;BMP180;54931;52.098;21.006;2022-09-11T15:15:47;99605.80;;;16.14
68127;BMP180;54931;52.098;21.006;2022-09-11T15:18:16;99607.60;;;16.20
68127;BMP180;54931;52.098;21.006;2022-09-11T15:20:44;99607.60;;;16.20
68127;BMP180;54931;52.098;21.006;2022-09-11T15:23:11;99609.20;;;16.20
68127;BMP180;54931;52.098;21.006;2022-09-11T15:25:39;99606.20;;;16.04
68127;BMP180;54931;52.098;21.006;2022-09-11T15:28:07;99617.00;;;16.00
68127;BMP180;54931;52.098;21.006;2022-09-11T15:30:36;99618.20;;;15.90
68127;BMP180;54931;52.098;21.006;2022-09-11T15:33:04;99620.40;;;15.80
68127;BMP180;54931;52.098;21.006;2022-09-11T15:35:32;99622.80;;;15.70
68127;BMP180;54931;52.098;21.006;2022-09-11T15:38:00;99630.40;;;15.60
68127;BMP180;54931;52.098;21.006;2022-09-11T15:40:30;99621.80;;;15.50
68127;BMP180;54931;52.098;21.006;2022-09-11T15:42:58;99627.20;;;15.40
68127;BMP180;54931;52.098;21.006;2022-09-11T15:45:25;99631.20;;;15.34
68127;BMP180;54931;52.098;21.006;2022-09-11T15:47:52;99632.60;;;15.26
68127;BMP180;54931;52.098;21.006;2022-09-11T15:50:19;99640.20;;;15.20
68127;BMP180;54931;52.098;21.006;2022-09-11T15:52:50;99638.60;;;15.10
68127;BMP180;54931;52.098;21.006;2022-09-11T15:55:17;99643.60;;;15.02
68127;BMP180;54931;52.098;21.006;2022-09-11T15:57:45;99645.40;;;15.00
68127;BMP180;54931;52.098;21.006;2022-09-11T16:00:13;99644.00;;;14.90
68127;BMP180;54931;52.098;21.006;2022-09-11T16:02:41;99648.20;;;14.90
68127;BMP180;54931;52.098;21.006;2022-09-11T16:05:08;99649.40;;;14.80
68127;BMP180;54931;52.098;21.006;2022-09-11T16:07:36;99658.20;;;14.80
68127;BMP180;54931;52.098;21.006;2022-09-11T16:10:03;99659.80;;;14.70
68127;BMP180;54931;52.098;21.006;2022-09-11T16:12:30;99658.00;;;14.60
68127;BMP180;54931;52.098;21.006;2022-09-11T16:15:00;99662.60;;;14.60
68127;BMP180;54931;52.098;21.006;2022-09-11T16:17:28;99668.40;;;14.60
68127;BMP180;54931;52.098;21.006;2022-09-11T16:19:58;99668.60;;;14.50
68127;BMP180;54931;52.098;21.006;2022-09-11T16:22:26;99669.40;;;14.42
68127;BMP180;54931;52.098;21.006;2022-09-11T16:24:57;99669.40;;;14.40
68127;BMP180;54931;52.098;21.006;2022-09-11T16:27:25;99673.60;;;14.30
68127;BMP180;54931;52.098;21.006;2022-09-11T16:29:52;99668.20;;;14.30
68127;BMP180;54931;52.098;21.006;2022-09-11T16:32:20;99672.00;;;14.30
68127;BMP180;54931;52.098;21.006;2022-09-11T16:34:59;99678.00;;;14.30
68127;BMP180;54931;52.098;21.006;2022-09-11T16:38:01;99679.20;;;14.20
68127;BMP180;54931;52.098;21.006;2022-09-11T16:40:30;99683.00;;;14.20
68127;BMP180;54931;52.098;21.006;2022-09-11T16:42:57;99684.00;;;14.20